マガダン の空港の天気 - METARとTAF

マガダン・ソコル空港 ( UHMM / GDX ) - ロシア マガダン
飛行場実況気象(Metar)
観測時間04/27 15:30 MAGT (04/27 04:30 UTC)
風向・風速北 6m/s
視程10km以上
天気現象
なし
気温2℃
湿度41%
気圧996hPa
METARUHMM 270430Z 36006MPS 9999 NSC 02/M10 Q0996 R10/70D NOSIG RMK QFE732
過去の天気等 Google飛行場航空写真 Wunderground天気予報

過去48時間のMETAR

飛行場予報(TAF)
発表時間: 4/27 12:40 MAGT (4/27 01:40 UTC)
予報対象時間: 27日14時 MAGT ~ 28日20時 MAGT
風向・風速北 5m/s 瞬間風速 13m/s
視程10km以上
全天の4割程度の積乱雲 雲底高度 910m
全天を覆う雲 雲底高度 2,130m
28日11時 MAGT ~ 28日12時 MAGT に徐々に
視程3,100m
天気現象弱いしゅう雪雨
全天の8割程度の積乱雲 雲底高度 460m
全天を覆う雲 雲底高度 2,130m
TAF UHMM 270140Z 2703/2809 01005G13MPS 9999 SCT030CB OVC070
BECMG 2800/2801 3100 -SHSNRA BKN015CB OVC070